sensor_id;sensor_type;location;lat;lon;timestamp;temperature;humidity
1083;DHT22;530;51.448;7.238;2022-09-25T00:00:54;14.00;99.90
1083;DHT22;530;51.448;7.238;2022-09-25T00:03:22;13.90;99.90
1083;DHT22;530;51.448;7.238;2022-09-25T00:05:50;14.00;99.90
1083;DHT22;530;51.448;7.238;2022-09-25T00:08:17;14.10;99.90
1083;DHT22;530;51.448;7.238;2022-09-25T00:10:49;14.00;99.90
1083;DHT22;530;51.448;7.238;2022-09-25T00:13:16;14.00;99.90
1083;DHT22;530;51.448;7.238;2022-09-25T00:15:50;14.00;99.90
1083;DHT22;530;51.448;7.238;2022-09-25T00:18:17;14.10;99.90
1083;DHT22;530;51.448;7.238;2022-09-25T00:21:07;14.10;99.90
1083;DHT22;530;51.448;7.238;2022-09-25T00:23:34;14.00;99.90
1083;DHT22;530;51.448;7.238;2022-09-25T00:26:01;14.00;99.90
1083;DHT22;530;51.448;7.238;2022-09-25T00:28:26;14.00;99.90
1083;DHT22;530;51.448;7.238;2022-09-25T00:30:56;13.90;99.90
1083;DHT22;530;51.448;7.238;2022-09-25T00:33:22;14.00;99.90
1083;DHT22;530;51.448;7.238;2022-09-25T00:35:48;14.00;99.90
1083;DHT22;530;51.448;7.238;2022-09-25T00:38:14;14.00;99.90
1083;DHT22;530;51.448;7.238;2022-09-25T00:40:40;14.00;99.90
1083;DHT22;530;51.448;7.238;2022-09-25T00:43:13;14.00;99.90
1083;DHT22;530;51.448;7.238;2022-09-25T00:45:39;13.90;99.90
1083;DHT22;530;51.448;7.238;2022-09-25T00:48:06;13.90;99.90
1083;DHT22;530;51.448;7.238;2022-09-25T00:50:40;13.90;99.90
1083;DHT22;530;51.448;7.238;2022-09-25T00:53:15;13.80;99.90
1083;DHT22;530;51.448;7.238;2022-09-25T00:55:43;13.80;99.90
1083;DHT22;530;51.448;7.238;2022-09-25T00:58:12;13.80;99.90
1083;DHT22;530;51.448;7.238;2022-09-25T01:00:38;13.70;99.90
1083;DHT22;530;51.448;7.238;2022-09-25T01:03:04;13.70;99.90
1083;DHT22;530;51.448;7.238;2022-09-25T01:05:35;13.80;99.90
1083;DHT22;530;51.448;7.238;2022-09-25T01:08:03;13.80;99.90
1083;DHT22;530;51.448;7.238;2022-09-25T01:10:31;13.70;99.90
1083;DHT22;530;51.448;7.238;2022-09-25T01:12:57;13.70;99.90
1083;DHT22;530;51.448;7.238;2022-09-25T01:18:11;13.80;99.90
1083;DHT22;530;51.448;7.238;2022-09-25T01:32:14;13.90;99.90
1083;DHT22;530;51.448;7.238;2022-09-25T01:34:54;13.90;99.90
1083;DHT22;530;51.448;7.238;2022-09-25T01:42:35;13.80;99.90
1083;DHT22;530;51.448;7.238;2022-09-25T01:45:08;13.70;99.90
1083;DHT22;530;51.448;7.238;2022-09-25T01:47:37;13.70;99.90
1083;DHT22;530;51.448;7.238;2022-09-25T01:50:09;13.70;99.90
1083;DHT22;530;51.448;7.238;2022-09-25T01:52:40;13.70;99.90
1083;DHT22;530;51.448;7.238;2022-09-25T01:55:20;13.50;99.90
1083;DHT22;530;51.448;7.238;2022-09-25T01:57:57;13.50;99.90
1083;DHT22;530;51.448;7.238;2022-09-25T02:00:24;13.40;99.90
1083;DHT22;530;51.448;7.238;2022-09-25T02:02:59;13.40;99.90
1083;DHT22;530;51.448;7.238;2022-09-25T02:05:33;13.30;99.90
1083;DHT22;530;51.448;7.238;2022-09-25T02:08:03;13.40;99.90
1083;DHT22;530;51.448;7.238;2022-09-25T02:10:35;13.30;99.90
1083;DHT22;530;51.448;7.238;2022-09-25T02:13:08;13.30;99.90
1083;DHT22;530;51.448;7.238;2022-09-25T02:15:45;13.40;99.90
1083;DHT22;530;51.448;7.238;2022-09-25T02:18:15;13.40;99.90
1083;DHT22;530;51.448;7.238;2022-09-25T02:24:01;13.50;99.90
1083;DHT22;530;51.448;7.238;2022-09-25T02:26:30;13.40;99.90
1083;DHT22;530;51.448;7.238;2022-09-25T02:28:57;13.50;99.90
1083;DHT22;530;51.448;7.238;2022-09-25T02:31:33;13.40;99.90
1083;DHT22;530;51.448;7.238;2022-09-25T02:34:00;13.40;99.90
1083;DHT22;530;51.448;7.238;2022-09-25T02:36:26;13.40;99.90
1083;DHT22;530;51.448;7.238;2022-09-25T02:38:52;13.40;99.90
1083;DHT22;530;51.448;7.238;2022-09-25T02:52:35;13.30;99.90
1083;DHT22;530;51.448;7.238;2022-09-25T02:55:40;13.20;99.90
1083;DHT22;530;51.448;7.238;2022-09-25T02:58:20;13.30;99.90
1083;DHT22;530;51.448;7.238;2022-09-25T03:00:51;13.30;99.90
1083;DHT22;530;51.448;7.238;2022-09-25T03:03:19;13.30;99.90
1083;DHT22;530;51.448;7.238;2022-09-25T03:05:47;13.30;99.90
1083;DHT22;530;51.448;7.238;2022-09-25T03:08:13;13.30;99.90
1083;DHT22;530;51.448;7.238;2022-09-25T03:10:59;13.30;99.90
1083;DHT22;530;51.448;7.238;2022-09-25T03:13:26;13.20;99.90
1083;DHT22;530;51.448;7.238;2022-09-25T03:16:19;13.20;99.90
1083;DHT22;530;51.448;7.238;2022-09-25T03:18:46;13.20;99.90
1083;DHT22;530;51.448;7.238;2022-09-25T03:21:12;13.20;99.90
1083;DHT22;530;51.448;7.238;2022-09-25T03:23:38;13.30;99.90
1083;DHT22;530;51.448;7.238;2022-09-25T03:26:04;13.20;99.90
1083;DHT22;530;51.448;7.238;2022-09-25T03:28:30;13.20;99.90
1083;DHT22;530;51.448;7.238;2022-09-25T03:31:05;13.30;99.90
1083;DHT22;530;51.448;7.238;2022-09-25T03:33:36;13.30;99.90
1083;DHT22;530;51.448;7.238;2022-09-25T03:36:26;13.30;99.90
1083;DHT22;530;51.448;7.238;2022-09-25T03:38:53;13.30;99.90
1083;DHT22;530;51.448;7.238;2022-09-25T03:41:22;13.30;99.90
1083;DHT22;530;51.448;7.238;2022-09-25T03:43:49;13.30;99.90
1083;DHT22;530;51.448;7.238;2022-09-25T03:46:20;13.30;99.90
1083;DHT22;530;51.448;7.238;2022-09-25T03:48:46;13.20;99.90
1083;DHT22;530;51.448;7.238;2022-09-25T03:51:12;13.20;99.90
1083;DHT22;530;51.448;7.238;2022-09-25T03:53:39;13.10;99.90
1083;DHT22;530;51.448;7.238;2022-09-25T03:56:08;13.20;99.90
1083;DHT22;530;51.448;7.238;2022-09-25T03:58:34;13.20;99.90
1083;DHT22;530;51.448;7.238;2022-09-25T04:01:00;13.20;99.90
1083;DHT22;530;51.448;7.238;2022-09-25T04:03:27;13.10;99.90
1083;DHT22;530;51.448;7.238;2022-09-25T04:05:58;13.10;99.90
1083;DHT22;530;51.448;7.238;2022-09-25T04:08:25;13.00;99.90
1083;DHT22;530;51.448;7.238;2022-09-25T04:10:55;12.90;99.90
1083;DHT22;530;51.448;7.238;2022-09-25T04:13:24;12.90;99.90
1083;DHT22;530;51.448;7.238;2022-09-25T04:15:50;12.90;99.90
1083;DHT22;530;51.448;7.238;2022-09-25T04:18:16;12.90;99.90
1083;DHT22;530;51.448;7.238;2022-09-25T04:20:42;12.90;99.90
1083;DHT22;530;51.448;7.238;2022-09-25T04:23:08;12.90;99.90
1083;DHT22;530;51.448;7.238;2022-09-25T04:25:33;12.80;99.90
1083;DHT22;530;51.448;7.238;2022-09-25T04:27:59;12.80;99.90
1083;DHT22;530;51.448;7.238;2022-09-25T04:30:27;12.80;99.90
1083;DHT22;530;51.448;7.238;2022-09-25T04:32:53;12.80;99.90
1083;DHT22;530;51.448;7.238;2022-09-25T04:35:39;12.80;99.90
1083;DHT22;530;51.448;7.238;2022-09-25T04:38:05;12.70;99.90
1083;DHT22;530;51.448;7.238;2022-09-25T04:40:31;12.70;99.90
1083;DHT22;530;51.448;7.238;2022-09-25T04:42:58;12.70;99.90
1083;DHT22;530;51.448;7.238;2022-09-25T04:45:24;12.60;99.90
1083;DHT22;530;51.448;7.238;2022-09-25T04:47:53;12.50;99.90
1083;DHT22;530;51.448;7.238;2022-09-25T04:50:20;12.50;99.90
1083;DHT22;530;51.448;7.238;2022-09-25T04:52:46;12.50;99.90
1083;DHT22;530;51.448;7.238;2022-09-25T04:55:12;12.40;99.90
1083;DHT22;530;51.448;7.238;2022-09-25T04:57:38;12.40;99.90
1083;DHT22;530;51.448;7.238;2022-09-25T05:00:05;12.40;99.90
1083;DHT22;530;51.448;7.238;2022-09-25T05:02:31;12.30;99.90
1083;DHT22;530;51.448;7.238;2022-09-25T05:04:56;12.30;99.90
1083;DHT22;530;51.448;7.238;2022-09-25T05:07:22;12.30;99.90
1083;DHT22;530;51.448;7.238;2022-09-25T05:09:48;12.20;99.90
1083;DHT22;530;51.448;7.238;2022-09-25T05:12:13;12.20;99.90
1083;DHT22;530;51.448;7.238;2022-09-25T05:14:40;12.20;99.90
1083;DHT22;530;51.448;7.238;2022-09-25T05:17:07;12.20;99.90
1083;DHT22;530;51.448;7.238;2022-09-25T05:19:35;12.20;99.90
1083;DHT22;530;51.448;7.238;2022-09-25T05:22:01;12.20;99.90
1083;DHT22;530;51.448;7.238;2022-09-25T05:24:26;12.10;99.90
1083;DHT22;530;51.448;7.238;2022-09-25T05:26:52;12.10;99.90
1083;DHT22;530;51.448;7.238;2022-09-25T05:29:18;12.00;99.90
1083;DHT22;530;51.448;7.238;2022-09-25T05:31:43;12.00;99.90
1083;DHT22;530;51.448;7.238;2022-09-25T05:34:13;11.90;99.90
1083;DHT22;530;51.448;7.238;2022-09-25T05:36:39;11.90;99.90
1083;DHT22;530;51.448;7.238;2022-09-25T05:39:04;11.80;99.90
1083;DHT22;530;51.448;7.238;2022-09-25T05:41:30;11.80;99.90
1083;DHT22;530;51.448;7.238;2022-09-25T05:43:58;11.80;99.90
1083;DHT22;530;51.448;7.238;2022-09-25T05:46:23;11.70;99.90
1083;DHT22;530;51.448;7.238;2022-09-25T05:48:49;11.60;99.90
1083;DHT22;530;51.448;7.238;2022-09-25T05:51:14;11.60;99.90
1083;DHT22;530;51.448;7.238;2022-09-25T05:53:40;11.60;99.90
1083;DHT22;530;51.448;7.238;2022-09-25T05:56:06;11.60;99.90
1083;DHT22;530;51.448;7.238;2022-09-25T05:58:33;11.50;99.90
1083;DHT22;530;51.448;7.238;2022-09-25T06:01:04;11.50;99.90
1083;DHT22;530;51.448;7.238;2022-09-25T06:03:31;11.50;99.90
1083;DHT22;530;51.448;7.238;2022-09-25T06:05:58;11.50;99.90
1083;DHT22;530;51.448;7.238;2022-09-25T06:08:25;11.50;99.90
1083;DHT22;530;51.448;7.238;2022-09-25T06:10:54;11.50;99.90
1083;DHT22;530;51.448;7.238;2022-09-25T06:13:22;11.60;99.90
1083;DHT22;530;51.448;7.238;2022-09-25T06:15:48;11.60;99.90
1083;DHT22;530;51.448;7.238;2022-09-25T06:18:21;11.60;99.90
1083;DHT22;530;51.448;7.238;2022-09-25T06:20:47;11.60;99.90
1083;DHT22;530;51.448;7.238;2022-09-25T06:23:14;11.70;99.90
1083;DHT22;530;51.448;7.238;2022-09-25T06:25:40;11.60;99.90
1083;DHT22;530;51.448;7.238;2022-09-25T06:28:06;11.70;99.90
1083;DHT22;530;51.448;7.238;2022-09-25T06:30:34;11.80;99.90
1083;DHT22;530;51.448;7.238;2022-09-25T06:35:27;12.00;99.90
1083;DHT22;530;51.448;7.238;2022-09-25T06:37:57;12.10;99.90
1083;DHT22;530;51.448;7.238;2022-09-25T06:40:24;12.20;99.90
1083;DHT22;530;51.448;7.238;2022-09-25T06:43:00;12.20;99.90
1083;DHT22;530;51.448;7.238;2022-09-25T06:45:28;12.30;99.90
1083;DHT22;530;51.448;7.238;2022-09-25T06:47:55;12.40;99.90
1083;DHT22;530;51.448;7.238;2022-09-25T06:50:25;12.40;99.90
1083;DHT22;530;51.448;7.238;2022-09-25T06:52:59;12.50;99.90
1083;DHT22;530;51.448;7.238;2022-09-25T06:55:28;12.60;99.90
1083;DHT22;530;51.448;7.238;2022-09-25T06:57:57;12.60;99.90
1083;DHT22;530;51.448;7.238;2022-09-25T07:00:23;12.70;99.90
1083;DHT22;530;51.448;7.238;2022-09-25T07:02:48;12.70;99.90
1083;DHT22;530;51.448;7.238;2022-09-25T07:05:32;12.80;99.90
1083;DHT22;530;51.448;7.238;2022-09-25T07:07:59;12.90;99.90
1083;DHT22;530;51.448;7.238;2022-09-25T07:10:24;13.00;99.90
1083;DHT22;530;51.448;7.238;2022-09-25T07:12:50;13.10;99.90
1083;DHT22;530;51.448;7.238;2022-09-25T07:15:16;13.20;99.90
1083;DHT22;530;51.448;7.238;2022-09-25T07:17:42;13.30;99.90
1083;DHT22;530;51.448;7.238;2022-09-25T07:20:08;13.40;99.90
1083;DHT22;530;51.448;7.238;2022-09-25T07:22:37;13.60;99.90
1083;DHT22;530;51.448;7.238;2022-09-25T07:25:03;13.80;99.90
1083;DHT22;530;51.448;7.238;2022-09-25T07:27:29;14.00;99.90
1083;DHT22;530;51.448;7.238;2022-09-25T07:29:55;14.10;99.90
1083;DHT22;530;51.448;7.238;2022-09-25T07:32:21;14.20;99.90
1083;DHT22;530;51.448;7.238;2022-09-25T07:34:47;14.20;99.90
1083;DHT22;530;51.448;7.238;2022-09-25T07:37:19;14.40;99.90
1083;DHT22;530;51.448;7.238;2022-09-25T07:39:45;14.40;99.90
1083;DHT22;530;51.448;7.238;2022-09-25T07:42:12;14.40;99.90
1083;DHT22;530;51.448;7.238;2022-09-25T07:44:37;14.30;99.90
1083;DHT22;530;51.448;7.238;2022-09-25T07:47:04;14.30;99.90
1083;DHT22;530;51.448;7.238;2022-09-25T07:49:32;14.20;99.90
1083;DHT22;530;51.448;7.238;2022-09-25T07:51:58;14.00;99.90
1083;DHT22;530;51.448;7.238;2022-09-25T07:54:24;13.90;99.90
1083;DHT22;530;51.448;7.238;2022-09-25T07:56:50;13.90;99.90
1083;DHT22;530;51.448;7.238;2022-09-25T07:59:16;13.90;99.90
1083;DHT22;530;51.448;7.238;2022-09-25T08:01:41;13.90;99.90
1083;DHT22;530;51.448;7.238;2022-09-25T08:04:07;14.10;99.90
1083;DHT22;530;51.448;7.238;2022-09-25T08:06:34;14.30;99.90
1083;DHT22;530;51.448;7.238;2022-09-25T08:09:00;14.50;99.90
1083;DHT22;530;51.448;7.238;2022-09-25T08:11:25;14.60;99.90
1083;DHT22;530;51.448;7.238;2022-09-25T08:13:52;14.50;99.90
1083;DHT22;530;51.448;7.238;2022-09-25T08:16:19;14.60;99.90
1083;DHT22;530;51.448;7.238;2022-09-25T08:18:47;14.50;99.90
1083;DHT22;530;51.448;7.238;2022-09-25T08:21:16;14.50;99.90
1083;DHT22;530;51.448;7.238;2022-09-25T08:23:44;14.40;99.90
1083;DHT22;530;51.448;7.238;2022-09-25T08:26:09;14.30;99.90
1083;DHT22;530;51.448;7.238;2022-09-25T08:28:35;14.30;99.90
1083;DHT22;530;51.448;7.238;2022-09-25T08:31:01;14.30;99.90
1083;DHT22;530;51.448;7.238;2022-09-25T08:33:31;14.40;99.90
1083;DHT22;530;51.448;7.238;2022-09-25T08:36:00;14.50;99.90
1083;DHT22;530;51.448;7.238;2022-09-25T08:38:27;14.50;99.90
1083;DHT22;530;51.448;7.238;2022-09-25T08:41:17;14.60;99.90
1083;DHT22;530;51.448;7.238;2022-09-25T08:46:58;14.80;99.90
1083;DHT22;530;51.448;7.238;2022-09-25T08:52:25;14.90;99.90
1083;DHT22;530;51.448;7.238;2022-09-25T08:54:51;14.90;99.90
1083;DHT22;530;51.448;7.238;2022-09-25T08:57:30;14.80;99.90
1083;DHT22;530;51.448;7.238;2022-09-25T09:00:04;14.70;99.90
1083;DHT22;530;51.448;7.238;2022-09-25T09:02:40;14.60;99.90
1083;DHT22;530;51.448;7.238;2022-09-25T09:05:15;14.60;99.90
1083;DHT22;530;51.448;7.238;2022-09-25T09:07:45;14.60;99.90
1083;DHT22;530;51.448;7.238;2022-09-25T09:10:35;14.50;99.90
1083;DHT22;530;51.448;7.238;2022-09-25T09:16:06;14.50;99.90
1083;DHT22;530;51.448;7.238;2022-09-25T09:18:38;14.40;99.90
1083;DHT22;530;51.448;7.238;2022-09-25T09:29:42;15.40;99.90
1083;DHT22;530;51.448;7.238;2022-09-25T09:35:00;16.20;99.90
1083;DHT22;530;51.448;7.238;2022-09-25T09:45:55;15.90;99.90
1083;DHT22;530;51.448;7.238;2022-09-25T09:48:30;15.70;99.90
1083;DHT22;530;51.448;7.238;2022-09-25T09:51:18;15.70;99.90
1083;DHT22;530;51.448;7.238;2022-09-25T09:53:53;15.70;99.90
1083;DHT22;530;51.448;7.238;2022-09-25T09:56:31;16.00;99.90
1083;DHT22;530;51.448;7.238;2022-09-25T09:59:11;16.30;99.90
1083;DHT22;530;51.448;7.238;2022-09-25T10:01:40;16.60;99.90
1083;DHT22;530;51.448;7.238;2022-09-25T10:04:51;16.90;99.90
1083;DHT22;530;51.448;7.238;2022-09-25T10:07:03;17.10;99.90
1083;DHT22;530;51.448;7.238;2022-09-25T10:09:30;17.30;99.90
1083;DHT22;530;51.448;7.238;2022-09-25T10:12:12;17.40;99.90
1083;DHT22;530;51.448;7.238;2022-09-25T10:14:44;17.60;99.90
1083;DHT22;530;51.448;7.238;2022-09-25T10:17:11;17.70;99.90
1083;DHT22;530;51.448;7.238;2022-09-25T10:20:03;17.90;99.90
1083;DHT22;530;51.448;7.238;2022-09-25T10:22:51;17.90;99.90
1083;DHT22;530;51.448;7.238;2022-09-25T10:25:38;17.90;99.90
1083;DHT22;530;51.448;7.238;2022-09-25T10:28:33;17.70;99.90
1083;DHT22;530;51.448;7.238;2022-09-25T10:31:00;17.50;99.90
1083;DHT22;530;51.448;7.238;2022-09-25T10:33:29;17.40;99.90
1083;DHT22;530;51.448;7.238;2022-09-25T10:35:55;17.40;99.90
1083;DHT22;530;51.448;7.238;2022-09-25T10:38:43;17.50;99.90
1083;DHT22;530;51.448;7.238;2022-09-25T10:41:19;17.80;99.90
1083;DHT22;530;51.448;7.238;2022-09-25T10:43:59;17.90;99.90
1083;DHT22;530;51.448;7.238;2022-09-25T10:46:30;17.90;99.90
1083;DHT22;530;51.448;7.238;2022-09-25T10:49:20;17.90;99.90
1083;DHT22;530;51.448;7.238;2022-09-25T10:52:07;18.00;99.90
1083;DHT22;530;51.448;7.238;2022-09-25T10:54:34;18.10;99.90
1083;DHT22;530;51.448;7.238;2022-09-25T10:57:00;18.20;99.90
1083;DHT22;530;51.448;7.238;2022-09-25T10:59:27;18.20;99.90
1083;DHT22;530;51.448;7.238;2022-09-25T11:01:54;18.30;99.90
1083;DHT22;530;51.448;7.238;2022-09-25T11:04:21;18.20;99.70
1083;DHT22;530;51.448;7.238;2022-09-25T11:06:51;18.00;98.40
1083;DHT22;530;51.448;7.238;2022-09-25T11:09:22;17.80;99.10
1083;DHT22;530;51.448;7.238;2022-09-25T11:11:52;17.70;98.70
1083;DHT22;530;51.448;7.238;2022-09-25T11:14:28;17.80;98.50
1083;DHT22;530;51.448;7.238;2022-09-25T11:17:00;17.90;99.50
1083;DHT22;530;51.448;7.238;2022-09-25T11:19:36;18.10;98.80
1083;DHT22;530;51.448;7.238;2022-09-25T11:22:18;18.20;99.20
1083;DHT22;530;51.448;7.238;2022-09-25T11:25:01;18.20;99.70
1083;DHT22;530;51.448;7.238;2022-09-25T11:30:17;17.80;99.90
1083;DHT22;530;51.448;7.238;2022-09-25T11:36:02;17.20;99.90
1083;DHT22;530;51.448;7.238;2022-09-25T11:41:29;17.60;99.60
1083;DHT22;530;51.448;7.238;2022-09-25T11:49:24;17.70;98.80
1083;DHT22;530;51.448;7.238;2022-09-25T11:55:19;17.30;99.90
1083;DHT22;530;51.448;7.238;2022-09-25T11:58:24;17.30;99.80
1083;DHT22;530;51.448;7.238;2022-09-25T12:09:00;18.10;99.90
1083;DHT22;530;51.448;7.238;2022-09-25T12:11:40;18.20;99.90
1083;DHT22;530;51.448;7.238;2022-09-25T12:17:34;18.10;98.40
1083;DHT22;530;51.448;7.238;2022-09-25T12:22:42;18.20;97.80
1083;DHT22;530;51.448;7.238;2022-09-25T12:25:27;18.30;97.10
1083;DHT22;530;51.448;7.238;2022-09-25T12:28:02;18.40;97.30
1083;DHT22;530;51.448;7.238;2022-09-25T12:30:53;18.50;97.20
1083;DHT22;530;51.448;7.238;2022-09-25T12:36:15;17.90;97.90
1083;DHT22;530;51.448;7.238;2022-09-25T12:38:56;17.70;97.70
1083;DHT22;530;51.448;7.238;2022-09-25T12:41:32;17.50;97.40
1083;DHT22;530;51.448;7.238;2022-09-25T12:46:55;17.30;98.10
1083;DHT22;530;51.448;7.238;2022-09-25T12:49:31;17.20;98.90
1083;DHT22;530;51.448;7.238;2022-09-25T12:52:03;17.20;99.70
1083;DHT22;530;51.448;7.238;2022-09-25T12:54:33;17.50;99.90
1083;DHT22;530;51.448;7.238;2022-09-25T12:57:21;17.70;99.40
1083;DHT22;530;51.448;7.238;2022-09-25T13:00:14;17.90;99.90
1083;DHT22;530;51.448;7.238;2022-09-25T13:03:11;18.20;99.00
1083;DHT22;530;51.448;7.238;2022-09-25T13:05:45;18.30;98.40
1083;DHT22;530;51.448;7.238;2022-09-25T13:08:36;18.50;97.90
1083;DHT22;530;51.448;7.238;2022-09-25T13:13:47;18.70;98.00
1083;DHT22;530;51.448;7.238;2022-09-25T13:16:15;18.90;98.70
1083;DHT22;530;51.448;7.238;2022-09-25T13:19:08;19.00;98.30
1083;DHT22;530;51.448;7.238;2022-09-25T13:21:37;19.00;96.90
1083;DHT22;530;51.448;7.238;2022-09-25T13:24:10;19.00;96.50
1083;DHT22;530;51.448;7.238;2022-09-25T13:26:52;19.10;97.30
1083;DHT22;530;51.448;7.238;2022-09-25T13:29:28;19.20;96.40
1083;DHT22;530;51.448;7.238;2022-09-25T13:32:06;19.00;93.80
1083;DHT22;530;51.448;7.238;2022-09-25T13:34:37;19.00;95.70
1083;DHT22;530;51.448;7.238;2022-09-25T13:37:06;19.00;94.40
1083;DHT22;530;51.448;7.238;2022-09-25T13:39:46;18.90;93.30
1083;DHT22;530;51.448;7.238;2022-09-25T13:42:35;18.90;93.60
1083;DHT22;530;51.448;7.238;2022-09-25T13:50:37;19.00;94.40
1083;DHT22;530;51.448;7.238;2022-09-25T13:53:15;18.90;92.90
1083;DHT22;530;51.448;7.238;2022-09-25T13:58:22;19.00;93.90
1083;DHT22;530;51.448;7.238;2022-09-25T14:06:00;19.00;94.00
1083;DHT22;530;51.448;7.238;2022-09-25T14:08:28;19.00;94.10
1083;DHT22;530;51.448;7.238;2022-09-25T14:10:56;19.00;94.00
1083;DHT22;530;51.448;7.238;2022-09-25T14:13:24;19.00;93.90
1083;DHT22;530;51.448;7.238;2022-09-25T14:15:52;19.10;94.70
1083;DHT22;530;51.448;7.238;2022-09-25T14:18:26;19.00;93.80
1083;DHT22;530;51.448;7.238;2022-09-25T14:20:58;18.90;93.80
1083;DHT22;530;51.448;7.238;2022-09-25T14:23:26;18.70;93.90
1083;DHT22;530;51.448;7.238;2022-09-25T14:25:58;18.70;94.00
1083;DHT22;530;51.448;7.238;2022-09-25T14:28:30;18.60;94.30
1083;DHT22;530;51.448;7.238;2022-09-25T14:42:29;18.10;96.10
1083;DHT22;530;51.448;7.238;2022-09-25T14:47:43;18.20;96.10
1083;DHT22;530;51.448;7.238;2022-09-25T14:52:45;18.40;96.20
1083;DHT22;530;51.448;7.238;2022-09-25T14:55:15;18.40;96.20
1083;DHT22;530;51.448;7.238;2022-09-25T14:57:41;18.40;95.50
1083;DHT22;530;51.448;7.238;2022-09-25T15:00:12;18.40;95.80
1083;DHT22;530;51.448;7.238;2022-09-25T15:02:42;18.50;95.30
1083;DHT22;530;51.448;7.238;2022-09-25T15:05:28;18.50;95.20
1083;DHT22;530;51.448;7.238;2022-09-25T15:07:57;18.50;95.70
1083;DHT22;530;51.448;7.238;2022-09-25T15:12:53;18.40;96.10
1083;DHT22;530;51.448;7.238;2022-09-25T15:15:20;18.40;96.10
1083;DHT22;530;51.448;7.238;2022-09-25T15:17:54;18.40;96.30
1083;DHT22;530;51.448;7.238;2022-09-25T15:20:27;18.30;96.60
1083;DHT22;530;51.448;7.238;2022-09-25T15:22:54;18.30;96.70
1083;DHT22;530;51.448;7.238;2022-09-25T15:25:32;18.20;96.40
1083;DHT22;530;51.448;7.238;2022-09-25T15:27:59;18.20;96.70
1083;DHT22;530;51.448;7.238;2022-09-25T15:30:26;18.10;96.70
1083;DHT22;530;51.448;7.238;2022-09-25T15:32:53;18.10;96.70
1083;DHT22;530;51.448;7.238;2022-09-25T15:35:23;18.10;96.80
1083;DHT22;530;51.448;7.238;2022-09-25T15:38:12;18.10;96.20
1083;DHT22;530;51.448;7.238;2022-09-25T15:40:38;18.00;96.00
1083;DHT22;530;51.448;7.238;2022-09-25T15:43:14;17.90;96.30
1083;DHT22;530;51.448;7.238;2022-09-25T15:48:29;17.70;96.10
1083;DHT22;530;51.448;7.238;2022-09-25T15:50:59;17.60;96.40
1083;DHT22;530;51.448;7.238;2022-09-25T15:53:31;17.50;96.60
1083;DHT22;530;51.448;7.238;2022-09-25T15:56:10;17.50;97.00
1083;DHT22;530;51.448;7.238;2022-09-25T16:01:17;17.30;97.00
1083;DHT22;530;51.448;7.238;2022-09-25T16:04:06;17.30;97.50
1083;DHT22;530;51.448;7.238;2022-09-25T16:06:50;17.30;98.00
1083;DHT22;530;51.448;7.238;2022-09-25T16:09:27;17.20;98.30
1083;DHT22;530;51.448;7.238;2022-09-25T16:12:10;17.10;98.40
1083;DHT22;530;51.448;7.238;2022-09-25T16:14:42;17.00;98.40
1083;DHT22;530;51.448;7.238;2022-09-25T16:17:31;16.90;98.20
1083;DHT22;530;51.448;7.238;2022-09-25T16:22:50;16.80;98.80
1083;DHT22;530;51.448;7.238;2022-09-25T16:25:34;16.80;98.80
1083;DHT22;530;51.448;7.238;2022-09-25T16:28:14;16.70;98.90
1083;DHT22;530;51.448;7.238;2022-09-25T16:31:02;16.70;99.10
1083;DHT22;530;51.448;7.238;2022-09-25T16:33:29;16.50;99.70
1083;DHT22;530;51.448;7.238;2022-09-25T16:36:03;16.50;99.90
1083;DHT22;530;51.448;7.238;2022-09-25T16:38:35;16.50;99.90
1083;DHT22;530;51.448;7.238;2022-09-25T16:43:34;16.40;99.90
1083;DHT22;530;51.448;7.238;2022-09-25T16:46:14;16.40;99.90
1083;DHT22;530;51.448;7.238;2022-09-25T16:48:44;16.30;99.90
1083;DHT22;530;51.448;7.238;2022-09-25T16:51:17;16.20;99.90
1083;DHT22;530;51.448;7.238;2022-09-25T16:53:46;16.30;99.90
1083;DHT22;530;51.448;7.238;2022-09-25T16:56:26;16.30;99.90
1083;DHT22;530;51.448;7.238;2022-09-25T16:58:52;16.40;99.90
1083;DHT22;530;51.448;7.238;2022-09-25T17:01:19;16.30;99.90
1083;DHT22;530;51.448;7.238;2022-09-25T17:03:46;16.20;99.90
1083;DHT22;530;51.448;7.238;2022-09-25T17:06:25;16.10;99.90
1083;DHT22;530;51.448;7.238;2022-09-25T17:08:52;16.10;99.90
1083;DHT22;530;51.448;7.238;2022-09-25T17:11:19;16.10;99.90
1083;DHT22;530;51.448;7.238;2022-09-25T17:13:47;16.00;99.90
1083;DHT22;530;51.448;7.238;2022-09-25T17:16:13;16.00;99.90
1083;DHT22;530;51.448;7.238;2022-09-25T17:18:39;16.00;99.90
1083;DHT22;530;51.448;7.238;2022-09-25T17:21:14;16.10;99.90
1083;DHT22;530;51.448;7.238;2022-09-25T17:23:42;16.10;99.90
1083;DHT22;530;51.448;7.238;2022-09-25T17:26:16;16.00;99.90
1083;DHT22;530;51.448;7.238;2022-09-25T17:28:43;16.00;99.90
1083;DHT22;530;51.448;7.238;2022-09-25T17:31:15;16.00;99.90
1083;DHT22;530;51.448;7.238;2022-09-25T17:33:41;15.90;99.90
1083;DHT22;530;51.448;7.238;2022-09-25T17:36:10;15.90;99.90
1083;DHT22;530;51.448;7.238;2022-09-25T17:38:36;15.90;99.90
1083;DHT22;530;51.448;7.238;2022-09-25T17:41:27;15.80;99.90
1083;DHT22;530;51.448;7.238;2022-09-25T17:43:50;15.70;99.90
1083;DHT22;530;51.448;7.238;2022-09-25T17:46:17;15.50;99.90
1083;DHT22;530;51.448;7.238;2022-09-25T17:48:45;15.40;99.90
1083;DHT22;530;51.448;7.238;2022-09-25T17:51:18;15.30;99.90
1083;DHT22;530;51.448;7.238;2022-09-25T17:53:45;15.20;99.90
1083;DHT22;530;51.448;7.238;2022-09-25T17:56:12;15.00;99.90
1083;DHT22;530;51.448;7.238;2022-09-25T17:58:38;14.90;99.90
1083;DHT22;530;51.448;7.238;2022-09-25T18:01:11;14.90;99.90
1083;DHT22;530;51.448;7.238;2022-09-25T18:03:37;14.80;99.90
1083;DHT22;530;51.448;7.238;2022-09-25T18:06:03;14.70;99.90
1083;DHT22;530;51.448;7.238;2022-09-25T18:08:29;14.70;99.90
1083;DHT22;530;51.448;7.238;2022-09-25T18:10:57;14.50;99.90
1083;DHT22;530;51.448;7.238;2022-09-25T18:13:23;14.40;99.90
1083;DHT22;530;51.448;7.238;2022-09-25T18:15:54;14.30;99.90
1083;DHT22;530;51.448;7.238;2022-09-25T18:18:21;14.20;99.90
1083;DHT22;530;51.448;7.238;2022-09-25T18:20:46;14.10;99.90
1083;DHT22;530;51.448;7.238;2022-09-25T18:23:31;14.00;99.90
1083;DHT22;530;51.448;7.238;2022-09-25T18:26:03;13.90;99.90
1083;DHT22;530;51.448;7.238;2022-09-25T18:28:30;13.90;99.90
1083;DHT22;530;51.448;7.238;2022-09-25T18:30:56;13.90;99.90
1083;DHT22;530;51.448;7.238;2022-09-25T18:33:25;13.90;99.90
1083;DHT22;530;51.448;7.238;2022-09-25T18:35:51;13.90;99.90
1083;DHT22;530;51.448;7.238;2022-09-25T18:38:17;13.90;99.90
1083;DHT22;530;51.448;7.238;2022-09-25T18:40:43;13.90;99.90
1083;DHT22;530;51.448;7.238;2022-09-25T18:43:10;13.90;99.90
1083;DHT22;530;51.448;7.238;2022-09-25T18:45:35;13.90;99.90
1083;DHT22;530;51.448;7.238;2022-09-25T18:48:01;13.90;99.90
1083;DHT22;530;51.448;7.238;2022-09-25T18:50:29;13.90;99.90
1083;DHT22;530;51.448;7.238;2022-09-25T18:52:55;13.80;99.90
1083;DHT22;530;51.448;7.238;2022-09-25T18:55:20;13.80;99.90
1083;DHT22;530;51.448;7.238;2022-09-25T18:57:46;13.80;99.90
1083;DHT22;530;51.448;7.238;2022-09-25T19:00:12;13.80;99.90
1083;DHT22;530;51.448;7.238;2022-09-25T19:02:38;13.90;99.90
1083;DHT22;530;51.448;7.238;2022-09-25T19:05:05;13.90;99.90
1083;DHT22;530;51.448;7.238;2022-09-25T19:07:31;13.90;99.90
1083;DHT22;530;51.448;7.238;2022-09-25T19:09:57;13.80;99.90